Gandhi — A8OK8 — position and weather

sailwx.info

Track history (hours):
 
Tides and Currents Weather Stations Pressure Air Temp Water Temp Dewpoint Dewpoint Depression Visibility Wind Speed Wind Dir Waves Ship Positions

Gandhi

Last reported at 2016-May-25 21:23 UTC. Time now 2016-May-26 08:54 UTC.
Position N 34°16' E 034°60'.

Length 176 m; draft 6.9 m.

Type: Tanker. MMSI: 636013645.

Date/timePositionNaut miles runAvg speedWind from/ knotsBaromVisibWave heightAir tempDewpointWater temp
2016-May-25 21:23N 34°16' E 034°60'1 1.0
2016-May-25 20:29N 34°15' E 034°59'  
2016-May-22 11:33N 33°54' E 035°33'1 1.2
2016-May-22 10:19N 33°56' E 035°33'13 2.5
2016-May-22 05:13N 34°08' E 035°38'0 0.0
2016-May-22 04:31N 34°08' E 035°38'1 0.1
2016-May-21 06:32N 34°07' E 035°37'5810.7
2016-May-21 01:10N 33°58' E 034°29'4612.5
2016-May-20 21:32N 34°02' E 033°34'1313.1
2016-May-20 20:33N 34°04' E 033°18'1513.4
2016-May-20 19:26N 34°06' E 033°01'1313.5
2016-May-20 18:28N 34°07' E 032°45'1513.5
2016-May-20 17:20N 34°09' E 032°27'  
2016-May-18 01:33N 35°43' E 016°32'1212.4
2016-May-18 00:33N 35°45' E 016°17'1312.6
2016-May-17 23:33N 35°46' E 016°02'1312.6
2016-May-17 22:32N 35°48' E 015°46'1212.6
2016-May-17 21:33N 35°49' E 015°31'1312.7
2016-May-17 20:33N 35°51' E 015°15'1312.6
2016-May-17 19:33N 35°51' E 014°60'1110.8
2016-May-17 18:33N 35°54' E 014°47'0 0.2
2016-May-17 17:31N 35°54' E 014°47'0 0.0
2016-May-17 16:31N 35°54' E 014°47'0 0.0
2016-May-17 15:31N 35°54' E 014°47'0 0.0
2016-May-17 14:28N 35°54' E 014°47'0 0.0
2016-May-17 12:22N 35°54' E 014°47'0 0.1
2016-May-17 11:31N 35°54' E 014°47'0 0.0
2016-May-17 01:31N 35°54' E 014°47'0 0.1
2016-May-17 00:10N 35°54' E 014°47'4 6.7
2016-May-16 23:33N 35°57' E 014°44'1312.7
2016-May-16 22:33N 36°05' E 014°31'1313.2
2016-May-16 21:33N 36°13' E 014°18'1312.9
2016-May-16 20:33N 36°20' E 014°05'1312.8
2016-May-16 19:33N 36°28' E 013°52'1512.7
2016-May-16 18:23N 36°37' E 013°37'1112.9
2016-May-16 17:33N 36°42' E 013°26'1313.3
2016-May-16 16:33N 36°50' E 013°12'1413.6
2016-May-16 15:33N 36°57' E 012°58'19412.9
2016-May-16 00:32N 38°48' E 009°36'1312.9
2016-May-15 23:33N 38°55' E 009°22'1312.7
2016-May-15 22:33N 39°03' E 009°09'6 5.5
2016-May-15 21:31N 39°06' E 009°03'  
Track history (hours):
 
Tides and Currents Weather Stations Pressure Air Temp Water Temp Dewpoint Dewpoint Depression Visibility Wind Speed Wind Dir Waves Ship Positions

Gandhi

Last reported at 2016-May-25 21:23 UTC. Time now 2016-May-26 08:54 UTC.
Position N 34°16' E 034°60'.

Length 176 m; draft 6.9 m.

Type: Tanker. MMSI: 636013645.

Date/timePositionNaut miles runAvg speedWind from/ knotsBaromVisibWave heightAir tempDewpointWater temp
2016-May-25 21:23N 34°16' E 034°60'1 1.0
2016-May-25 20:29N 34°15' E 034°59'  
2016-May-22 11:33N 33°54' E 035°33'1 1.2
2016-May-22 10:19N 33°56' E 035°33'13 2.5
2016-May-22 05:13N 34°08' E 035°38'0 0.0
2016-May-22 04:31N 34°08' E 035°38'1 0.1
2016-May-21 06:32N 34°07' E 035°37'5810.7
2016-May-21 01:10N 33°58' E 034°29'4612.5
2016-May-20 21:32N 34°02' E 033°34'1313.1
2016-May-20 20:33N 34°04' E 033°18'1513.4
2016-May-20 19:26N 34°06' E 033°01'1313.5
2016-May-20 18:28N 34°07' E 032°45'1513.5
2016-May-20 17:20N 34°09' E 032°27'  
2016-May-18 01:33N 35°43' E 016°32'1212.4
2016-May-18 00:33N 35°45' E 016°17'1312.6
2016-May-17 23:33N 35°46' E 016°02'1312.6
2016-May-17 22:32N 35°48' E 015°46'1212.6
2016-May-17 21:33N 35°49' E 015°31'1312.7
2016-May-17 20:33N 35°51' E 015°15'1312.6
2016-May-17 19:33N 35°51' E 014°60'1110.8
2016-May-17 18:33N 35°54' E 014°47'0 0.2
2016-May-17 17:31N 35°54' E 014°47'0 0.0
2016-May-17 16:31N 35°54' E 014°47'0 0.0
2016-May-17 15:31N 35°54' E 014°47'0 0.0
2016-May-17 14:28N 35°54' E 014°47'0 0.0
2016-May-17 12:22N 35°54' E 014°47'0 0.1
2016-May-17 11:31N 35°54' E 014°47'0 0.0
2016-May-17 01:31N 35°54' E 014°47'0 0.1
2016-May-17 00:10N 35°54' E 014°47'4 6.7
2016-May-16 23:33N 35°57' E 014°44'1312.7
2016-May-16 22:33N 36°05' E 014°31'1313.2
2016-May-16 21:33N 36°13' E 014°18'1312.9
2016-May-16 20:33N 36°20' E 014°05'1312.8
2016-May-16 19:33N 36°28' E 013°52'1512.7
2016-May-16 18:23N 36°37' E 013°37'1112.9
2016-May-16 17:33N 36°42' E 013°26'1313.3
2016-May-16 16:33N 36°50' E 013°12'1413.6
2016-May-16 15:33N 36°57' E 012°58'19412.9
2016-May-16 00:32N 38°48' E 009°36'1312.9
2016-May-15 23:33N 38°55' E 009°22'1312.7
2016-May-15 22:33N 39°03' E 009°09'6 5.5
2016-May-15 21:31N 39°06' E 009°03'  

Dump ship's entire track history